Skip Navigation Links Skip Navigation Links

Current Weather

Polyarny, Russia

For information only: do not use for flight planning or navigation.
Latest weather
Observation time Thursday, October 17, 2019 1:30 PM +08
Local time Thursday, October 17, 2019 1:51 PM +08
Flight conditions Low Instrument Meteorological Conditions
Winds
Wind direction Northwest (320°)
Wind speed 2 mph
Visibility 0.2 mi.
Present weather heavy snow showers, fog
Sky condition
Ceiling 300 ft. indefinite
Cloud layer vertical visibility 300 ft.
Temperature 32°F
Dewpoint 32°F
Altimeter 29.59 in.Hg
Precipitation
QB 2:30 PM
QF 12:47 AM
Derived measurements
Relative humidity 100%
Wind chill 32°F
Density altitude 315 ft.
Remarks
No significant changes expected in the next two hours.
METAR UERP 170530Z 32001MPS 0400 R35/0500 +SHSN FG VV003 00/00 Q1002 R35/690530 NOSIG RMK QBB090 QFE707

Settings

Location code

InnerDrive.Weather 4.0.6770.0 Release CLR 4.0.30319.42000
Copyright ©2018 Inner Drive Technology. All rights reserved. Portions Copyright ©1986-2018 David Braverman.

Find weather

Site navigation


Skip Navigation Links

Place info

Page info

PayPal - The safer, easier way to pay online!

Return home.

Copyright ©2019 Inner Drive Technology. Purveyors of fine, hand-crafted computer software. Page printed 2019-10-17T05:51:15 UTC.